Time;durP1;ratioP1;P1;durP2;ratioP2;P2;SDS_P1;SDS_P2;PMS_P1;PMS_P2;Temp;Humidity;BMP_temperature;BMP_pressure;BME280_temperature;BME280_humidity;BME280_pressure;Samples;Min_cycle;Max_cycle;Signal;HPM_P1;HPM_P2
2022/03/06 00:01:27;;;;;;;8.07;6.70;;;5.10;51.30;;;;;;5040094;28;20612;-77
2022/03/06 00:03:52;;;;;;;11.43;7.40;;;5.10;50.80;;;;;;5051249;28;20177;-77
2022/03/06 00:06:19;;;;;;;8.97;7.23;;;5.10;51.10;;;;;;5045166;28;20176;-77
2022/03/06 00:08:45;;;;;;;11.07;7.65;;;5.10;50.40;;;;;;5044616;28;20571;-77
2022/03/06 00:11:10;;;;;;;9.03;7.67;;;5.10;51.60;;;;;;5043238;28;20533;-77
2022/03/06 00:13:36;;;;;;;9.80;7.90;;;5.10;50.70;;;;;;5047395;28;20680;-77
2022/03/06 00:16:03;;;;;;;11.23;7.30;;;5.00;51.20;;;;;;5048738;28;20576;-77
2022/03/06 00:18:29;;;;;;;8.30;5.80;;;5.00;50.70;;;;;;5048513;28;20185;-78
2022/03/06 00:20:58;;;;;;;10.63;8.63;;;5.00;50.50;;;;;;5042092;28;20294;-78
2022/03/06 00:23:25;;;;;;;7.95;6.45;;;5.00;50.50;;;;;;5044908;28;20580;-78
2022/03/06 00:25:51;;;;;;;8.30;6.53;;;5.00;50.70;;;;;;5032955;28;20207;-78
2022/03/06 00:28:17;;;;;;;8.53;7.40;;;5.00;50.70;;;;;;5044589;28;20178;-78
2022/03/06 00:30:48;;;;;;;7.35;5.78;;;4.90;50.60;;;;;;5024055;28;20593;-77
2022/03/06 00:33:14;;;;;;;8.63;6.03;;;4.90;50.60;;;;;;5044203;28;20674;-77
2022/03/06 00:35:39;;;;;;;10.95;6.53;;;4.90;51.00;;;;;;5045062;28;20517;-77
2022/03/06 00:38:05;;;;;;;10.00;6.90;;;4.90;50.90;;;;;;5048935;28;20171;-77
2022/03/06 00:40:31;;;;;;;9.90;7.40;;;4.80;50.80;;;;;;5053388;28;20195;-77
2022/03/06 00:42:57;;;;;;;7.77;6.80;;;4.80;50.60;;;;;;5048136;28;20608;-77
2022/03/06 00:45:23;;;;;;;10.37;7.70;;;4.80;50.80;;;;;;5048460;28;21028;-76
2022/03/06 00:47:49;;;;;;;8.75;7.30;;;4.80;50.70;;;;;;5045926;28;20978;-77
2022/03/06 00:50:15;;;;;;;7.97;6.30;;;4.80;50.80;;;;;;5042430;28;20177;-77
2022/03/06 00:52:41;;;;;;;7.80;6.47;;;4.70;50.90;;;;;;5043783;28;20665;-78
2022/03/06 00:55:08;;;;;;;10.43;7.70;;;4.70;50.70;;;;;;5013427;28;21174;-77
2022/03/06 00:57:34;;;;;;;8.73;6.03;;;4.70;50.80;;;;;;5042397;28;20181;-77
2022/03/06 01:00:00;;;;;;;7.43;6.18;;;4.70;50.90;;;;;;5046420;28;20272;-77
2022/03/06 01:02:28;;;;;;;7.07;5.68;;;4.70;51.10;;;;;;5031625;28;20210;-77
2022/03/06 01:04:54;;;;;;;9.88;6.50;;;4.70;51.00;;;;;;5044213;28;20368;-77
2022/03/06 01:07:20;;;;;;;9.13;6.60;;;4.60;51.00;;;;;;5041583;28;20731;-77
2022/03/06 01:09:45;;;;;;;9.90;6.40;;;4.60;51.00;;;;;;5024024;28;20600;-76
2022/03/06 01:12:12;;;;;;;9.17;6.80;;;4.60;51.30;;;;;;5028620;28;20610;-77
2022/03/06 01:14:38;;;;;;;11.15;7.15;;;4.60;51.30;;;;;;5042080;28;21148;-76
2022/03/06 01:17:04;;;;;;;12.00;8.02;;;4.60;51.40;;;;;;5047130;28;20665;-76
2022/03/06 01:19:30;;;;;;;10.25;7.03;;;4.50;51.30;;;;;;5044509;28;20184;-77
2022/03/06 01:21:56;;;;;;;11.30;8.00;;;4.50;51.60;;;;;;5026671;28;20201;-76
2022/03/06 01:24:22;;;;;;;11.38;7.57;;;4.50;51.70;;;;;;5043072;28;20603;-76
2022/03/06 01:26:48;;;;;;;11.32;8.55;;;4.50;51.50;;;;;;5047471;28;20615;-76
2022/03/06 01:29:14;;;;;;;13.23;10.47;;;4.40;51.60;;;;;;5042390;28;20224;-76
2022/03/06 01:31:40;;;;;;;12.30;8.40;;;4.40;51.70;;;;;;5044182;28;20647;-77
2022/03/06 01:34:06;;;;;;;14.45;11.50;;;4.40;51.60;;;;;;5040529;28;20624;-76
2022/03/06 01:36:32;;;;;;;14.32;10.93;;;4.40;51.70;;;;;;5043089;28;20562;-77
2022/03/06 01:38:58;;;;;;;12.88;10.50;;;4.40;51.80;;;;;;5047170;28;20173;-77
2022/03/06 01:41:25;;;;;;;14.05;8.20;;;4.30;51.70;;;;;;5026365;28;20201;-77
2022/03/06 01:43:51;;;;;;;12.70;9.20;;;4.30;51.80;;;;;;5046604;28;20184;-77
2022/03/06 01:46:17;;;;;;;9.90;8.25;;;4.30;51.80;;;;;;5044328;28;20199;-77
2022/03/06 01:48:43;;;;;;;10.65;7.60;;;4.30;52.10;;;;;;5028242;28;20189;-77
2022/03/06 01:51:09;;;;;;;14.30;7.30;;;4.20;52.00;;;;;;5043212;28;20208;-77
2022/03/06 01:53:35;;;;;;;9.40;6.97;;;4.20;52.00;;;;;;5040535;28;20631;-78
2022/03/06 01:56:01;;;;;;;9.80;7.70;;;4.20;52.00;;;;;;5024283;28;20185;-77
2022/03/06 01:58:26;;;;;;;14.10;9.00;;;4.10;52.00;;;;;;5041277;28;20173;-77
2022/03/06 02:00:52;;;;;;;11.80;8.98;;;4.10;52.30;;;;;;5039615;28;20206;-77
2022/03/06 02:03:19;;;;;;;12.47;9.37;;;4.10;52.60;;;;;;5042892;28;20231;-78
2022/03/06 02:05:45;;;;;;;12.82;10.25;;;4.00;52.20;;;;;;5026658;28;20188;-77
2022/03/06 02:08:12;;;;;;;11.80;8.85;;;4.00;52.50;;;;;;5040848;28;20185;-77
2022/03/06 02:10:38;;;;;;;12.90;7.95;;;4.00;52.50;;;;;;5042681;28;20181;-77
2022/03/06 02:13:05;;;;;;;11.13;8.00;;;4.00;52.60;;;;;;5040246;28;20198;-77
2022/03/06 02:15:32;;;;;;;11.05;7.70;;;4.00;52.60;;;;;;5024490;28;20214;-77
2022/03/06 02:17:58;;;;;;;11.20;8.00;;;3.90;52.50;;;;;;5016390;28;20257;-76
2022/03/06 02:20:25;;;;;;;9.25;6.93;;;3.90;52.60;;;;;;5042319;28;20165;-77
2022/03/06 02:22:54;;;;;;;11.13;8.38;;;3.90;52.70;;;;;;5041553;28;20229;-77
2022/03/06 02:25:36;;;;;;;10.98;7.38;;;3.80;52.70;;;;;;5042830;28;20239;-77
2022/03/06 02:28:08;;;;;;;10.10;6.90;;;3.80;53.10;;;;;;5038561;28;20182;-77
2022/03/06 02:30:38;;;;;;;9.55;7.30;;;3.70;52.90;;;;;;5039118;28;20173;-77
2022/03/06 02:33:06;;;;;;;10.65;7.55;;;3.70;52.90;;;;;;5025774;28;20673;-77
2022/03/06 02:35:34;;;;;;;12.15;7.60;;;3.70;53.00;;;;;;5041314;28;20169;-77
2022/03/06 02:38:00;;;;;;;9.73;7.43;;;3.60;53.00;;;;;;5021357;28;20177;-77
2022/03/06 02:40:27;;;;;;;12.13;9.07;;;3.60;53.10;;;;;;5038496;28;20236;-77
2022/03/06 02:42:54;;;;;;;9.30;6.43;;;3.50;53.10;;;;;;5025008;28;20200;-77
2022/03/06 02:45:22;;;;;;;9.30;7.40;;;3.50;53.20;;;;;;5018769;28;20194;-77
2022/03/06 02:47:49;;;;;;;10.23;8.45;;;3.50;53.30;;;;;;5042054;28;20658;-76
2022/03/06 02:50:19;;;;;;;10.18;8.18;;;3.50;53.30;;;;;;5040656;28;20177;-76
2022/03/06 02:52:45;;;;;;;13.05;7.40;;;3.40;53.40;;;;;;5041940;28;20196;-76
2022/03/06 02:55:12;;;;;;;12.83;9.20;;;3.40;54.10;;;;;;5038838;28;20227;-76
2022/03/06 02:57:38;;;;;;;10.90;6.95;;;3.40;53.60;;;;;;5041760;28;20600;-76
2022/03/06 03:00:07;;;;;;;8.40;6.80;;;3.40;53.80;;;;;;5040251;28;20227;-76
2022/03/06 03:02:34;;;;;;;10.27;8.55;;;3.30;53.80;;;;;;5022887;28;20276;-76
2022/03/06 03:05:00;;;;;;;11.90;8.00;;;3.30;53.90;;;;;;5022722;28;20332;-76
2022/03/06 03:07:26;;;;;;;11.50;9.15;;;3.30;54.00;;;;;;5041246;28;20522;-76
2022/03/06 03:09:52;;;;;;;12.57;8.23;;;3.30;54.10;;;;;;5043654;28;20314;-76
2022/03/06 03:12:18;;;;;;;11.10;7.90;;;3.30;54.20;;;;;;5043074;28;20638;-76
2022/03/06 03:14:45;;;;;;;11.52;8.70;;;3.30;54.20;;;;;;5043954;28;20645;-76
2022/03/06 03:17:10;;;;;;;9.23;7.33;;;3.20;54.30;;;;;;5042990;28;20226;-76
2022/03/06 03:19:36;;;;;;;11.90;6.80;;;3.30;54.40;;;;;;5042696;28;20188;-76
2022/03/06 03:22:02;;;;;;;9.30;6.97;;;3.20;54.30;;;;;;5045195;28;20197;-76
2022/03/06 03:24:29;;;;;;;10.82;7.32;;;3.20;54.40;;;;;;5042743;28;20204;-76
2022/03/06 03:26:55;;;;;;;9.55;7.43;;;3.20;54.50;;;;;;5037487;28;20186;-77
2022/03/06 03:29:20;;;;;;;11.47;7.63;;;3.20;54.60;;;;;;5046993;28;20172;-77
2022/03/06 03:31:46;;;;;;;10.43;6.97;;;3.20;54.80;;;;;;5046772;28;20198;-76
2022/03/06 03:34:12;;;;;;;11.30;8.23;;;3.20;54.90;;;;;;5026351;28;20304;-77
2022/03/06 03:36:39;;;;;;;9.93;7.78;;;3.20;55.00;;;;;;5044628;28;20173;-77
2022/03/06 03:39:06;;;;;;;11.07;7.88;;;3.30;55.20;;;;;;5024719;28;20180;-77
2022/03/06 03:41:32;;;;;;;12.43;8.70;;;3.30;55.30;;;;;;5027306;28;20244;-76
2022/03/06 03:43:58;;;;;;;13.07;7.45;;;3.30;55.40;;;;;;5024056;28;20275;-77
2022/03/06 03:46:23;;;;;;;11.53;7.33;;;3.40;55.50;;;;;;5045487;28;20284;-77
2022/03/06 03:48:49;;;;;;;10.43;7.27;;;3.40;55.60;;;;;;5043729;28;20664;-77
2022/03/06 03:51:15;;;;;;;10.50;7.80;;;3.50;55.70;;;;;;5044319;28;20223;-77
2022/03/06 03:53:41;;;;;;;9.73;7.50;;;3.50;55.80;;;;;;5042816;28;20197;-77
2022/03/06 03:56:06;;;;;;;12.65;8.05;;;3.50;55.90;;;;;;5043639;28;20582;-77
2022/03/06 03:58:33;;;;;;;9.83;7.47;;;3.50;55.90;;;;;;5041941;28;20201;-77
2022/03/06 04:01:00;;;;;;;11.68;8.05;;;3.60;56.00;;;;;;5040231;28;20300;-77
2022/03/06 04:03:27;;;;;;;10.48;8.00;;;3.60;56.10;;;;;;5043913;28;20286;-76
2022/03/06 04:05:53;;;;;;;9.70;7.15;;;3.60;56.20;;;;;;5040449;28;20177;-77
2022/03/06 04:08:19;;;;;;;12.65;8.10;;;3.70;56.40;;;;;;5047192;28;20181;-77
2022/03/06 04:10:44;;;;;;;10.05;7.18;;;3.70;56.50;;;;;;5045298;28;20551;-77
2022/03/06 04:13:10;;;;;;;12.07;8.07;;;3.70;56.60;;;;;;5040335;28;20201;-76
2022/03/06 04:15:36;;;;;;;11.68;8.32;;;3.80;56.70;;;;;;5043277;28;20201;-77
2022/03/06 04:18:03;;;;;;;11.40;9.27;;;3.80;56.80;;;;;;5042566;28;20664;-76
2022/03/06 04:20:29;;;;;;;9.55;7.60;;;3.80;56.80;;;;;;5040277;28;20185;-76
2022/03/06 04:22:55;;;;;;;14.90;8.52;;;3.90;56.80;;;;;;5025029;28;20201;-77
2022/03/06 04:25:21;;;;;;;10.90;7.70;;;3.90;56.90;;;;;;5042946;28;20192;-77
2022/03/06 04:27:47;;;;;;;12.05;7.50;;;3.90;57.50;;;;;;5041459;28;20173;-77
2022/03/06 04:30:13;;;;;;;13.30;9.17;;;3.90;57.00;;;;;;5043413;28;20649;-77
2022/03/06 04:32:39;;;;;;;10.60;8.00;;;4.00;57.20;;;;;;5040892;28;21242;-76
2022/03/06 04:35:06;;;;;;;9.20;7.80;;;4.00;57.10;;;;;;5043523;28;20578;-77
2022/03/06 04:37:32;;;;;;;9.48;7.25;;;4.00;57.10;;;;;;5039394;28;20580;-76
2022/03/06 04:39:57;;;;;;;11.60;8.27;;;4.10;57.10;;;;;;5044460;28;20709;-77
2022/03/06 04:42:23;;;;;;;8.90;7.00;;;4.10;57.00;;;;;;5043019;28;20627;-77
2022/03/06 04:44:49;;;;;;;8.97;7.83;;;4.10;57.10;;;;;;5045045;28;20623;-77
2022/03/06 04:47:15;;;;;;;15.37;9.30;;;4.20;57.10;;;;;;5023563;28;20639;-77
2022/03/06 04:49:41;;;;;;;10.35;8.50;;;4.20;57.30;;;;;;5041831;28;20587;-77
2022/03/06 04:52:07;;;;;;;10.87;7.33;;;4.20;57.50;;;;;;5041220;28;20193;-77
2022/03/06 04:54:33;;;;;;;11.63;8.10;;;4.30;58.10;;;;;;5024327;28;20208;-76
2022/03/06 04:57:00;;;;;;;10.45;8.20;;;4.30;57.30;;;;;;5042269;28;20606;-77
2022/03/06 04:59:27;;;;;;;11.73;9.00;;;4.30;57.50;;;;;;5039617;28;20188;-77
2022/03/06 05:01:53;;;;;;;11.60;9.27;;;4.30;57.70;;;;;;5039366;28;20202;-77
2022/03/06 05:04:19;;;;;;;10.50;8.02;;;4.40;58.00;;;;;;5043269;28;20260;-77
2022/03/06 05:06:45;;;;;;;14.25;10.02;;;4.40;58.00;;;;;;5042914;28;20636;-77
2022/03/06 05:09:11;;;;;;;12.20;9.43;;;4.40;58.10;;;;;;5042664;28;20267;-77
2022/03/06 05:11:37;;;;;;;13.13;9.70;;;4.40;58.10;;;;;;5044046;28;20597;-77
2022/03/06 05:14:03;;;;;;;13.90;10.10;;;4.40;58.30;;;;;;5040858;28;20635;-77
2022/03/06 05:16:29;;;;;;;14.90;10.60;;;4.40;58.30;;;;;;5041445;28;20573;-77
2022/03/06 05:18:56;;;;;;;11.05;9.20;;;4.40;58.30;;;;;;5041153;28;20263;-77
2022/03/06 05:21:22;;;;;;;15.35;10.93;;;4.40;58.40;;;;;;5049054;28;20224;-77
2022/03/06 05:23:47;;;;;;;11.73;9.70;;;4.40;58.60;;;;;;5041094;28;20184;-77
2022/03/06 05:26:13;;;;;;;11.43;9.40;;;4.40;58.60;;;;;;5043885;28;20177;-77
2022/03/06 05:28:41;;;;;;;14.77;9.97;;;4.40;58.70;;;;;;5044445;28;21147;-77
2022/03/06 05:31:10;;;;;;;12.30;9.38;;;4.40;58.80;;;;;;5040051;28;20607;-76
2022/03/06 05:33:36;;;;;;;13.57;10.00;;;4.40;58.90;;;;;;5043223;28;20197;-77
2022/03/06 05:36:03;;;;;;;12.40;9.70;;;4.40;58.90;;;;;;5041993;28;20184;-77
2022/03/06 05:38:29;;;;;;;13.95;10.07;;;4.40;59.00;;;;;;5024188;28;20181;-76
2022/03/06 05:40:55;;;;;;;12.07;9.53;;;4.40;59.10;;;;;;5042839;28;20220;-76
2022/03/06 05:43:20;;;;;;;11.82;9.48;;;4.40;59.20;;;;;;5046876;28;20546;-76
2022/03/06 05:45:50;;;;;;;19.20;8.40;;;4.40;59.10;;;;;;5042934;28;20181;-76
2022/03/06 05:48:17;;;;;;;11.25;9.02;;;4.40;59.10;;;;;;5049301;28;20177;-77
2022/03/06 05:50:43;;;;;;;9.60;7.40;;;4.40;59.30;;;;;;5042339;28;20625;-77
2022/03/06 05:53:09;;;;;;;15.73;8.70;;;4.40;59.10;;;;;;5042778;28;20660;-75
2022/03/06 05:55:35;;;;;;;11.60;8.50;;;4.40;59.20;;;;;;5044883;28;20165;-76
2022/03/06 05:58:01;;;;;;;13.50;9.35;;;4.40;59.20;;;;;;5053696;28;20579;-78
2022/03/06 06:00:28;;;;;;;12.10;8.70;;;4.40;59.40;;;;;;5045597;28;20183;-77
2022/03/06 06:02:55;;;;;;;12.23;8.55;;;4.40;59.40;;;;;;5028774;28;21182;-76
2022/03/06 06:05:22;;;;;;;11.45;8.70;;;4.30;59.50;;;;;;5039653;28;20264;-77
2022/03/06 06:07:48;;;;;;;10.45;7.60;;;4.30;59.20;;;;;;5044563;28;20556;-78
2022/03/06 06:10:14;;;;;;;14.18;8.40;;;4.30;59.50;;;;;;5043908;28;20238;-77
2022/03/06 06:12:40;;;;;;;9.73;7.55;;;4.30;59.60;;;;;;5038306;28;20215;-77
2022/03/06 06:15:08;;;;;;;9.80;7.85;;;4.30;59.60;;;;;;5040385;28;20201;-77
2022/03/06 06:17:34;;;;;;;10.25;8.02;;;4.30;59.70;;;;;;5043891;28;20183;-77
2022/03/06 06:20:00;;;;;;;12.15;7.78;;;4.20;59.80;;;;;;5023199;28;20267;-77
2022/03/06 06:22:28;;;;;;;10.20;8.18;;;4.20;59.90;;;;;;5037571;28;20201;-77
2022/03/06 06:24:55;;;;;;;10.80;8.40;;;4.20;60.00;;;;;;5047598;28;20193;-77
2022/03/06 06:27:21;;;;;;;13.90;8.38;;;4.20;60.10;;;;;;5032213;28;20564;-77
2022/03/06 06:29:47;;;;;;;11.93;8.55;;;4.20;60.00;;;;;;5028636;28;20255;-77
2022/03/06 06:32:13;;;;;;;10.10;8.40;;;4.20;60.10;;;;;;5030004;28;20229;-77
2022/03/06 06:34:39;;;;;;;10.45;7.60;;;4.20;60.40;;;;;;5031363;28;20205;-77
2022/03/06 06:37:05;;;;;;;11.80;8.23;;;4.20;60.80;;;;;;5033598;28;20170;-77
2022/03/06 06:39:31;;;;;;;8.48;7.55;;;4.20;60.90;;;;;;5028394;28;20600;-77
2022/03/06 06:41:59;;;;;;;11.23;8.70;;;4.20;61.20;;;;;;5027831;28;21191;-77
2022/03/06 06:44:24;;;;;;;9.82;8.00;;;4.20;61.30;;;;;;5030380;28;20179;-77
2022/03/06 06:46:50;;;;;;;12.20;8.57;;;4.30;61.60;;;;;;5030968;28;20261;-77
2022/03/06 06:49:15;;;;;;;13.13;9.00;;;4.30;61.80;;;;;;5036381;28;20170;-77
2022/03/06 06:51:42;;;;;;;11.68;9.40;;;4.40;62.10;;;;;;5034801;28;20193;-76
2022/03/06 06:54:08;;;;;;;10.87;8.17;;;4.40;62.30;;;;;;5034100;28;20193;-76
2022/03/06 06:56:34;;;;;;;9.40;7.63;;;4.50;62.30;;;;;;5032528;28;21132;-77
2022/03/06 06:59:00;;;;;;;9.73;8.50;;;4.50;62.60;;;;;;5033138;28;20181;-77
2022/03/06 07:01:25;;;;;;;11.37;8.50;;;4.60;62.50;;;;;;5033115;28;20276;-77
2022/03/06 07:03:51;;;;;;;10.87;8.00;;;4.60;62.80;;;;;;5032312;28;20680;-77
2022/03/06 07:06:17;;;;;;;13.03;9.00;;;4.70;63.70;;;;;;5032135;28;20177;-77
2022/03/06 07:08:43;;;;;;;11.03;8.90;;;4.80;64.40;;;;;;5033431;28;20588;-77
2022/03/06 07:11:09;;;;;;;11.73;8.47;;;4.90;66.20;;;;;;5015141;28;20240;-77
2022/03/06 07:13:35;;;;;;;13.45;8.93;;;5.10;68.00;;;;;;5036965;28;20197;-77
2022/03/06 07:16:00;;;;;;;11.40;9.30;;;5.30;68.40;;;;;;5020351;28;20176;-77
2022/03/06 07:18:26;;;;;;;11.37;9.40;;;5.40;70.20;;;;;;5038631;28;20535;-77
2022/03/06 07:20:53;;;;;;;12.13;9.10;;;5.60;70.60;;;;;;5039851;28;20174;-77
2022/03/06 07:23:19;;;;;;;11.07;8.98;;;5.80;70.60;;;;;;5006072;28;20178;-79
2022/03/06 07:25:45;;;;;;;12.20;9.23;;;5.90;69.50;;;;;;5038976;28;20531;-77
2022/03/06 07:28:11;;;;;;;12.00;8.30;;;6.10;69.60;;;;;;5045484;28;20177;-77
2022/03/06 07:30:36;;;;;;;8.80;7.90;;;6.20;69.30;;;;;;5038596;28;20588;-77
2022/03/06 07:33:02;;;;;;;11.87;9.63;;;6.30;68.70;;;;;;5040995;28;20627;-77
2022/03/06 07:35:29;;;;;;;13.20;9.37;;;6.30;69.50;;;;;;5037639;28;20561;-77
2022/03/06 07:37:54;;;;;;;11.80;9.10;;;6.50;69.90;;;;;;5039402;28;20568;-77
2022/03/06 07:40:22;;;;;;;13.83;10.30;;;6.60;69.70;;;;;;5023052;28;20251;-76
2022/03/06 07:42:49;;;;;;;10.13;9.13;;;6.70;69.60;;;;;;5024867;28;20618;-76
2022/03/06 07:45:15;;;;;;;12.40;9.65;;;6.80;69.00;;;;;;5041790;28;20217;-76
2022/03/06 07:47:41;;;;;;;11.57;9.20;;;6.90;69.40;;;;;;5045077;28;20211;-77
2022/03/06 07:50:10;;;;;;;11.82;8.93;;;7.10;69.50;;;;;;5051839;28;20204;-77
2022/03/06 07:52:37;;;;;;;12.40;9.32;;;7.20;69.40;;;;;;5035683;28;20263;-77
2022/03/06 07:55:03;;;;;;;13.00;9.45;;;7.30;69.50;;;;;;5023174;28;20597;-77
2022/03/06 07:57:29;;;;;;;9.90;8.73;;;7.40;69.50;;;;;;5041473;28;20181;-77
2022/03/06 07:59:55;;;;;;;12.13;8.50;;;7.50;69.30;;;;;;5043534;28;20180;-77
2022/03/06 08:02:21;;;;;;;13.27;10.10;;;7.60;69.20;;;;;;5041316;28;20186;-78
2022/03/06 08:04:47;;;;;;;13.13;10.10;;;7.60;68.50;;;;;;5043827;28;20169;-78
2022/03/06 08:07:13;;;;;;;12.77;9.97;;;7.70;67.90;;;;;;5043892;28;20311;-77
2022/03/06 08:09:38;;;;;;;11.87;9.90;;;7.80;67.40;;;;;;5043651;28;20595;-77
2022/03/06 08:12:04;;;;;;;12.67;10.67;;;7.80;66.80;;;;;;5043265;28;20347;-78
2022/03/06 08:14:30;;;;;;;13.13;10.60;;;8.10;67.10;;;;;;5041036;28;20197;-77
2022/03/06 08:16:56;;;;;;;12.43;10.23;;;8.50;68.60;;;;;;5039831;28;20706;-77
2022/03/06 08:19:22;;;;;;;14.30;10.73;;;8.80;67.00;;;;;;5025674;28;20607;-77
2022/03/06 08:21:48;;;;;;;12.30;9.98;;;8.90;66.70;;;;;;5042311;28;20259;-78
2022/03/06 08:24:15;;;;;;;14.10;10.73;;;9.40;68.40;;;;;;5042884;28;20185;-77
2022/03/06 08:26:41;;;;;;;10.93;9.75;;;10.20;68.90;;;;;;5047587;28;20178;-78
2022/03/06 08:29:07;;;;;;;11.77;9.93;;;11.10;69.90;;;;;;5043879;28;20185;-77
2022/03/06 08:31:33;;;;;;;12.83;9.93;;;12.10;71.10;;;;;;5042091;28;20227;-78
2022/03/06 08:33:58;;;;;;;12.27;10.60;;;13.00;70.50;;;;;;5021817;28;21060;-78
2022/03/06 08:36:24;;;;;;;11.43;9.93;;;13.90;70.20;;;;;;5041381;28;20588;-78
2022/03/06 08:38:50;;;;;;;12.37;11.07;;;14.70;69.00;;;;;;5039223;28;21120;-78
2022/03/06 08:41:16;;;;;;;10.93;9.80;;;15.50;67.80;;;;;;5038966;28;20696;-79
2022/03/06 08:43:42;;;;;;;10.43;9.43;;;16.10;66.20;;;;;;5044475;28;20181;-78
2022/03/06 08:46:07;;;;;;;11.33;10.13;;;16.40;63.90;;;;;;5045502;28;20197;-78
2022/03/06 08:48:36;;;;;;;12.40;11.03;;;16.70;62.70;;;;;;5039837;28;20178;-79
2022/03/06 08:51:04;;;;;;;11.43;10.37;;;17.10;61.40;;;;;;5044044;28;20339;-79
2022/03/06 08:53:31;;;;;;;12.07;10.43;;;17.30;60.10;;;;;;5037185;28;20717;-79
2022/03/06 08:55:57;;;;;;;11.50;10.30;;;17.40;58.90;;;;;;5043718;28;20659;-79
2022/03/06 08:58:23;;;;;;;12.83;11.60;;;17.40;58.50;;;;;;5045290;28;20693;-79
2022/03/06 09:00:48;;;;;;;10.47;9.47;;;17.30;57.20;;;;;;5041930;28;20600;-78
2022/03/06 09:03:14;;;;;;;13.40;9.60;;;17.00;55.70;;;;;;5043701;28;20181;-79
2022/03/06 09:05:40;;;;;;;10.83;9.70;;;16.60;55.40;;;;;;5044764;28;20335;-78
2022/03/06 09:08:10;;;;;;;11.83;10.13;;;16.30;55.20;;;;;;5039402;28;20660;-78
2022/03/06 09:10:40;;;;;;;13.57;11.43;;;16.10;54.60;;;;;;5025088;28;20187;-79
2022/03/06 09:13:07;;;;;;;11.30;10.10;;;15.90;54.30;;;;;;5039402;28;20630;-78
2022/03/06 09:15:34;;;;;;;12.97;10.27;;;15.80;54.50;;;;;;5042930;28;20987;-78
2022/03/06 09:18:00;;;;;;;11.07;9.85;;;15.60;54.90;;;;;;5038991;28;20599;-77
2022/03/06 09:20:28;;;;;;;11.33;9.57;;;15.50;54.10;;;;;;5041069;28;20646;-77
2022/03/06 09:22:54;;;;;;;12.63;10.33;;;15.50;54.70;;;;;;5040483;28;20615;-77
2022/03/06 09:25:20;;;;;;;11.63;10.33;;;15.70;55.20;;;;;;5040741;28;20908;-77
2022/03/06 09:27:46;;;;;;;10.90;9.73;;;15.90;53.60;;;;;;5036509;28;20177;-79
2022/03/06 09:30:13;;;;;;;12.00;10.27;;;16.10;54.80;;;;;;5040728;28;20572;-79
2022/03/06 09:32:39;;;;;;;11.93;9.80;;;16.30;54.60;;;;;;5040885;28;20936;-78
2022/03/06 09:35:08;;;;;;;10.73;9.50;;;16.30;53.90;;;;;;5042454;28;21020;-79
2022/03/06 09:37:34;;;;;;;11.50;10.33;;;16.20;53.10;;;;;;5033191;28;20583;-77
2022/03/06 09:40:01;;;;;;;11.10;10.00;;;16.20;53.60;;;;;;5043167;28;20927;-77
2022/03/06 09:42:27;;;;;;;10.50;9.50;;;16.20;53.60;;;;;;5047483;28;20189;-77
2022/03/06 09:44:53;;;;;;;9.60;8.60;;;16.30;53.50;;;;;;5039587;28;20611;-77
2022/03/06 09:47:19;;;;;;;11.97;10.83;;;16.30;53.30;;;;;;5040655;28;20591;-77
2022/03/06 09:49:46;;;;;;;11.47;10.33;;;16.30;53.30;;;;;;5025139;28;20321;-77
2022/03/06 09:52:12;;;;;;;11.70;10.50;;;16.40;53.30;;;;;;5041613;28;21286;-77
2022/03/06 09:54:39;;;;;;;10.87;9.77;;;16.40;52.80;;;;;;5039785;28;21106;-77
2022/03/06 09:57:05;;;;;;;12.27;9.80;;;16.30;52.50;;;;;;5041762;28;20568;-77
2022/03/06 09:59:31;;;;;;;10.40;9.40;;;16.20;52.30;;;;;;5040572;28;20630;-77
2022/03/06 10:02:05;;;;;;;12.87;10.23;;;16.30;52.60;;;;;;5031840;28;20632;-77
2022/03/06 10:04:34;;;;;;;10.30;9.30;;;16.60;52.50;;;;;;5031989;28;20593;-77
2022/03/06 10:07:05;;;;;;;9.33;8.33;;;16.80;52.70;;;;;;5036367;28;21166;-77
2022/03/06 10:09:33;;;;;;;9.90;8.90;;;17.00;52.70;;;;;;5037426;28;20580;-77
2022/03/06 10:11:59;;;;;;;9.10;8.20;;;17.20;52.60;;;;;;5036823;28;20600;-78
2022/03/06 10:14:37;;;;;;;11.87;10.67;;;17.30;52.30;;;;;;5036600;28;20650;-76
2022/03/06 10:17:21;;;;;;;10.33;9.30;;;17.40;51.40;;;;;;5028739;28;20585;-76
2022/03/06 10:19:46;;;;;;;12.47;11.17;;;17.50;51.00;;;;;;5031925;28;20577;-78
2022/03/06 10:22:12;;;;;;;12.50;10.37;;;17.60;51.70;;;;;;5034862;28;20666;-78
2022/03/06 10:24:56;;;;;;;9.60;8.70;;;18.00;52.40;;;;;;5035144;28;20190;-78
2022/03/06 10:27:54;;;;;;;10.10;8.97;;;18.50;52.20;;;;;;5027725;28;21152;-78
2022/03/06 10:30:38;;;;;;;10.70;9.60;;;19.10;52.00;;;;;;5038831;28;20576;-81
2022/03/06 10:33:08;;;;;;;10.03;9.03;;;19.50;51.80;;;;;;5030879;28;20644;-82
2022/03/06 10:35:42;;;;;;;11.33;10.23;;;19.60;50.70;;;;;;5035289;28;21223;-79
2022/03/06 10:38:29;;;;;;;9.33;8.43;;;19.50;49.80;;;;;;5029906;28;20662;-76
2022/03/06 10:40:57;;;;;;;10.77;9.67;;;19.30;48.80;;;;;;5014464;28;20584;-77
2022/03/06 10:43:25;;;;;;;9.83;8.83;;;19.00;48.90;;;;;;5033787;28;20634;-78
2022/03/06 10:46:07;;;;;;;11.35;10.13;;;18.70;48.70;;;;;;5037381;28;20726;-77
2022/03/06 10:48:32;;;;;;;9.87;8.87;;;18.50;47.60;;;;;;5032422;28;20673;-77
2022/03/06 10:51:02;;;;;;;10.47;9.43;;;18.40;48.50;;;;;;5037828;28;20603;-77
2022/03/06 10:53:28;;;;;;;10.17;8.77;;;18.30;47.30;;;;;;5034229;28;20562;-76
2022/03/06 10:55:54;;;;;;;10.40;9.33;;;18.00;46.80;;;;;;5041073;28;20583;-76
2022/03/06 10:58:21;;;;;;;8.97;8.03;;;17.70;46.50;;;;;;5035327;28;20579;-77
2022/03/06 11:00:51;;;;;;;9.57;8.67;;;17.40;46.60;;;;;;5037034;28;20962;-76
2022/03/06 11:03:18;;;;;;;9.67;8.67;;;17.10;46.50;;;;;;5043055;28;20934;-76
2022/03/06 11:05:46;;;;;;;8.63;7.77;;;16.80;46.10;;;;;;5047748;28;20948;-76
2022/03/06 11:08:16;;;;;;;10.17;9.17;;;16.50;45.90;;;;;;5039115;28;21125;-76
2022/03/06 11:10:43;;;;;;;9.80;8.70;;;16.20;46.10;;;;;;5037954;28;20668;-76
2022/03/06 11:13:13;;;;;;;10.00;8.87;;;16.00;46.00;;;;;;5036738;28;20646;-77
2022/03/06 11:15:41;;;;;;;11.60;9.00;;;15.80;46.10;;;;;;5023950;28;20605;-76
2022/03/06 11:18:07;;;;;;;10.20;9.20;;;15.60;46.20;;;;;;5049004;28;20598;-76
2022/03/06 11:20:34;;;;;;;11.83;9.67;;;15.40;45.90;;;;;;5040441;28;20580;-74
2022/03/06 11:23:33;;;;;;;12.00;10.27;;;15.30;45.90;;;;;;5036159;28;20753;-75
2022/03/06 11:26:14;;;;;;;10.70;9.60;;;15.10;46.00;;;;;;5021975;28;20583;-76
2022/03/06 11:29:08;;;;;;;13.67;9.40;;;15.10;46.30;;;;;;5036703;28;20173;-76
2022/03/06 11:31:53;;;;;;;12.43;9.40;;;15.00;46.30;;;;;;5033523;28;20616;-76
2022/03/06 11:34:26;;;;;;;13.00;10.20;;;14.90;46.20;;;;;;5038008;28;20641;-75
2022/03/06 11:36:53;;;;;;;11.50;10.23;;;14.80;46.20;;;;;;5017620;28;20568;-77
2022/03/06 11:39:31;;;;;;;12.93;9.93;;;14.80;46.70;;;;;;5045518;28;21175;-76
2022/03/06 11:41:57;;;;;;;10.30;9.20;;;14.70;46.90;;;;;;5038334;28;21214;-76
2022/03/06 11:44:33;;;;;;;11.83;8.90;;;14.90;47.70;;;;;;5053721;28;20571;-77
2022/03/06 11:47:12;;;;;;;12.00;10.73;;;15.10;48.80;;;;;;5051638;28;20583;-77
2022/03/06 11:49:37;;;;;;;11.70;10.07;;;15.40;48.40;;;;;;5040559;28;20575;-77
2022/03/06 11:52:26;;;;;;;10.70;9.70;;;15.60;48.60;;;;;;5022559;28;21230;-77
2022/03/06 11:54:52;;;;;;;10.80;9.70;;;15.80;48.70;;;;;;5030836;28;20197;-77
2022/03/06 11:57:43;;;;;;;11.43;10.23;;;16.10;49.00;;;;;;5038192;28;20705;-78
2022/03/06 12:00:32;;;;;;;13.73;10.63;;;16.30;48.50;;;;;;5036651;28;20587;-76
2022/03/06 12:03:01;;;;;;;14.77;11.07;;;16.40;47.40;;;;;;5036592;28;20619;-77
2022/03/06 12:05:52;;;;;;;12.20;10.77;;;16.20;45.50;;;;;;5041280;28;20615;-77
2022/03/06 12:08:18;;;;;;;12.70;10.88;;;15.80;45.40;;;;;;5038743;28;20666;-75
2022/03/06 12:10:45;;;;;;;12.07;10.77;;;15.50;45.40;;;;;;5041760;28;20192;-75
2022/03/06 12:13:18;;;;;;;14.10;11.63;;;15.20;45.60;;;;;;5036988;28;20686;-76
2022/03/06 12:16:01;;;;;;;12.27;10.60;;;15.20;46.00;;;;;;5038847;28;20960;-76
2022/03/06 12:18:27;;;;;;;14.63;13.27;;;15.20;46.70;;;;;;5037397;28;20786;-76
2022/03/06 12:20:54;;;;;;;11.27;10.10;;;15.40;45.70;;;;;;5037891;28;20604;-77
2022/03/06 12:23:28;;;;;;;11.20;10.00;;;15.50;46.70;;;;;;5020953;28;20591;-77
2022/03/06 12:25:59;;;;;;;14.07;11.77;;;15.60;46.30;;;;;;5034564;28;21144;-78
2022/03/06 12:28:37;;;;;;;13.53;10.27;;;15.50;45.60;;;;;;5036467;28;20646;-78
2022/03/06 12:31:32;;;;;;;10.70;9.60;;;15.30;45.20;;;;;;5032264;28;20623;-78
2022/03/06 12:33:59;;;;;;;12.15;10.50;;;15.10;44.60;;;;;;5033009;28;20613;-78
2022/03/06 12:36:26;;;;;;;10.13;9.13;;;14.80;44.10;;;;;;5021951;28;20174;-77
2022/03/06 12:39:00;;;;;;;9.85;8.80;;;14.50;44.10;;;;;;5034602;28;20220;-78
2022/03/06 12:41:28;;;;;;;10.60;9.60;;;14.30;43.80;;;;;;5033329;28;20319;-77
2022/03/06 12:44:00;;;;;;;9.45;8.23;;;14.10;44.30;;;;;;5036279;28;20170;-79
2022/03/06 12:46:26;;;;;;;11.38;9.93;;;13.90;44.00;;;;;;5036870;28;20178;-79